createdAt,value
2018-04-13T00:01:31.201Z,12.53
2018-04-13T00:03:58.793Z,16.33
2018-04-13T00:06:26.361Z,9.57
2018-04-13T00:08:53.913Z,15.40
2018-04-13T00:11:21.501Z,9.73
2018-04-13T00:13:49.825Z,11.47
2018-04-13T00:16:17.421Z,11.90
2018-04-13T00:18:45.006Z,17.87
2018-04-13T00:21:13.369Z,10.40
2018-04-13T00:23:40.941Z,11.20
2018-04-13T00:26:09.293Z,9.53
2018-04-13T00:28:36.852Z,11.63
2018-04-13T00:31:04.517Z,11.40
2018-04-13T00:33:32.121Z,11.47
2018-04-13T00:35:59.704Z,12.37
2018-04-13T00:38:27.345Z,11.80
2018-04-13T00:40:54.949Z,11.30
2018-04-13T00:43:24.031Z,10.10
2018-04-13T00:45:51.601Z,12.17
2018-04-13T00:48:19.238Z,10.63
2018-04-13T00:50:46.801Z,13.77
2018-04-13T00:53:26.618Z,10.53
2018-04-13T00:55:54.177Z,12.03
2018-04-13T00:58:21.790Z,10.50
2018-04-13T01:00:49.494Z,12.23
2018-04-13T01:03:17.052Z,8.97
2018-04-13T01:05:44.641Z,13.20
2018-04-13T01:08:12.236Z,12.90
2018-04-13T01:10:40.576Z,15.60
2018-04-13T01:13:08.194Z,12.00
2018-04-13T01:15:35.781Z,12.67
2018-04-13T01:18:03.337Z,11.67
2018-04-13T01:20:30.929Z,12.37
2018-04-13T01:23:00.142Z,10.83
2018-04-13T01:25:27.838Z,10.40
2018-04-13T01:27:55.411Z,12.63
2018-04-13T01:30:22.981Z,11.37
2018-04-13T01:32:50.582Z,15.13
2018-04-13T01:35:19.052Z,11.07
2018-04-13T01:37:48.125Z,10.97
2018-04-13T01:40:15.733Z,13.40
2018-04-13T01:42:44.157Z,15.03
2018-04-13T01:45:11.753Z,11.37
2018-04-13T01:47:40.089Z,20.00
2018-04-13T01:50:07.684Z,19.13
2018-04-13T01:52:36.026Z,9.23
2018-04-13T01:55:03.621Z,10.97
2018-04-13T01:57:31.177Z,9.83
2018-04-13T01:59:58.744Z,11.67
2018-04-13T02:02:27.092Z,10.23
2018-04-13T02:04:54.641Z,9.97
2018-04-13T02:07:22.392Z,13.93
2018-04-13T02:09:49.940Z,9.50
2018-04-13T02:12:17.532Z,11.97
2018-04-13T02:14:45.098Z,14.63
2018-04-13T02:17:12.677Z,16.00
2018-04-13T02:19:41.001Z,13.00
2018-04-13T02:22:08.589Z,14.30
2018-04-13T02:24:36.175Z,13.97
2018-04-13T02:27:04.633Z,9.83
2018-04-13T02:29:32.191Z,11.03
2018-04-13T02:32:01.285Z,11.87
2018-04-13T02:34:28.994Z,9.93
2018-04-13T02:36:56.443Z,12.20
2018-04-13T02:39:24.113Z,14.43
2018-04-13T02:41:51.673Z,13.97
2018-04-13T02:44:19.321Z,14.00
2018-04-13T02:46:46.877Z,13.90
2018-04-13T02:49:14.477Z,12.37
2018-04-13T02:51:42.036Z,14.53
2018-04-13T02:54:09.616Z,11.93
2018-04-13T02:56:37.196Z,12.17
2018-04-13T02:59:05.514Z,14.27
2018-04-13T03:01:33.160Z,13.23
2018-04-13T03:04:00.714Z,10.00
2018-04-13T03:06:28.344Z,11.57
2018-04-13T03:08:56.681Z,17.23
2018-04-13T03:11:24.287Z,12.27
2018-04-13T03:13:52.693Z,13.23
2018-04-13T03:16:20.294Z,9.93
2018-04-13T03:18:47.879Z,14.57
2018-04-13T03:21:16.231Z,10.87
2018-04-13T03:23:43.812Z,18.30
2018-04-13T03:26:12.138Z,12.00
2018-04-13T03:28:39.737Z,14.60
2018-04-13T03:31:08.088Z,19.47
2018-04-13T03:33:35.781Z,13.50
2018-04-13T03:36:04.109Z,10.10
2018-04-13T03:38:31.693Z,11.47
2018-04-13T03:40:59.253Z,11.90
2018-04-13T03:43:26.821Z,12.50
2018-04-13T03:45:54.401Z,10.03
2018-04-13T03:48:22.717Z,10.80
2018-04-13T03:50:50.292Z,8.67
2018-04-13T03:53:17.849Z,12.80
2018-04-13T03:55:45.440Z,11.13
2018-04-13T03:58:13.768Z,15.47
2018-04-13T04:00:41.468Z,11.80
2018-04-13T04:03:09.030Z,14.50
2018-04-13T04:05:36.611Z,16.57
2018-04-13T04:08:05.010Z,11.17
2018-04-13T04:10:32.676Z,9.00
2018-04-13T04:13:00.334Z,12.73
2018-04-13T04:15:27.948Z,13.07
2018-04-13T04:17:55.612Z,11.03
2018-04-13T04:20:35.201Z,21.07
2018-04-13T04:23:14.761Z,16.90
2018-04-13T04:28:43.710Z,11.00
2018-04-13T04:31:12.066Z,11.00
2018-04-13T04:33:39.681Z,10.83
2018-04-13T04:36:07.242Z,11.70
2018-04-13T04:38:34.841Z,9.43
2018-04-13T04:41:02.408Z,14.63
2018-04-13T04:43:29.985Z,7.90
2018-04-13T04:45:58.331Z,16.20
2018-04-13T04:48:25.916Z,10.40
2018-04-13T04:50:54.261Z,14.17
2018-04-13T04:53:21.973Z,9.33
2018-04-13T04:55:49.525Z,14.83
2018-04-13T04:58:17.925Z,11.17
2018-04-13T05:00:45.588Z,11.20
2018-04-13T05:03:13.147Z,9.83
2018-04-13T05:05:40.733Z,10.40
2018-04-13T05:08:08.289Z,12.07
2018-04-13T05:10:35.874Z,11.23
2018-04-13T05:13:03.465Z,9.50
2018-04-13T05:15:31.048Z,13.93
2018-04-13T05:17:58.604Z,10.97
2018-04-13T05:20:26.161Z,13.80
2018-04-13T05:22:53.749Z,10.70
2018-04-13T05:25:21.349Z,12.20
2018-04-13T05:27:49.708Z,13.67
2018-04-13T05:30:17.348Z,9.80
2018-04-13T05:32:44.941Z,14.73
2018-04-13T05:35:13.330Z,16.73
2018-04-13T05:37:40.869Z,14.30
2018-04-13T05:40:09.196Z,20.10
2018-04-13T05:42:36.802Z,15.80
2018-04-13T05:45:04.370Z,17.40
2018-04-13T05:47:32.733Z,13.53
2018-04-13T05:50:00.325Z,10.67
2018-04-13T05:52:27.942Z,18.20
2018-04-13T05:54:55.543Z,16.03
2018-04-13T05:57:23.157Z,16.90
2018-04-13T05:59:50.753Z,15.53
2018-04-13T06:02:19.101Z,16.53
2018-04-13T06:04:46.706Z,14.77
2018-04-13T06:07:14.275Z,13.83
2018-04-13T06:09:42.051Z,14.20
2018-04-13T06:12:09.626Z,11.93
2018-04-13T06:14:37.351Z,16.37
2018-04-13T06:17:04.927Z,17.40
2018-04-13T06:19:32.523Z,14.47
2018-04-13T06:22:00.106Z,14.70
2018-04-13T06:24:28.617Z,18.30
2018-04-13T06:26:56.951Z,20.03
2018-04-13T06:29:25.292Z,17.70
2018-04-13T06:31:52.901Z,16.67
2018-04-13T06:34:21.256Z,19.43
2018-04-13T06:36:48.814Z,13.07
2018-04-13T06:39:16.409Z,16.40
2018-04-13T06:41:44.092Z,19.53
2018-04-13T06:44:11.653Z,16.77
2018-04-13T06:46:39.268Z,14.77
2018-04-13T06:49:07.593Z,15.70
2018-04-13T06:51:35.180Z,18.60
2018-04-13T06:54:02.850Z,17.60
2018-04-13T06:56:31.258Z,15.57
2018-04-13T06:58:59.096Z,19.50
2018-04-13T07:01:27.528Z,15.40
2018-04-13T07:03:55.189Z,19.57
2018-04-13T07:06:22.769Z,19.40
2018-04-13T07:08:50.441Z,25.13
2018-04-13T07:11:18.006Z,17.90
2018-04-13T07:13:45.701Z,16.27
2018-04-13T07:16:13.443Z,18.37
2018-04-13T07:18:41.813Z,14.63
2018-04-13T07:21:09.380Z,19.60
2018-04-13T07:23:37.770Z,21.20
2018-04-13T07:26:06.100Z,17.00
2018-04-13T07:28:33.656Z,22.53
2018-04-13T07:31:01.324Z,20.53
2018-04-13T07:33:28.882Z,20.90
2018-04-13T07:35:56.465Z,32.17
2018-04-13T07:38:24.810Z,18.27
2018-04-13T07:40:52.590Z,17.93
2018-04-13T07:43:20.736Z,23.57
2018-04-13T07:45:48.345Z,18.60
2018-04-13T07:48:16.717Z,22.50
2018-04-13T07:50:44.403Z,18.40
2018-04-13T07:53:11.874Z,17.70
2018-04-13T07:55:39.539Z,21.67
2018-04-13T07:58:07.103Z,24.10
2018-04-13T08:00:34.768Z,18.37
2018-04-13T08:03:02.276Z,21.23
2018-04-13T08:05:30.638Z,21.53
2018-04-13T08:07:59.005Z,23.37
2018-04-13T08:10:26.608Z,21.87
2018-04-13T08:12:54.483Z,30.87
2018-04-13T08:15:21.921Z,23.20
2018-04-13T08:17:50.258Z,27.00
2018-04-13T08:20:17.822Z,16.30
2018-04-13T08:22:45.645Z,17.60
2018-04-13T08:25:13.250Z,16.33
2018-04-13T08:27:40.858Z,21.83
2018-04-13T08:30:08.451Z,18.30
2018-04-13T08:32:36.057Z,21.03
2018-04-13T08:35:04.390Z,26.50
2018-04-13T08:37:32.077Z,23.10
2018-04-13T08:40:00.676Z,20.57
2018-04-13T08:42:29.127Z,31.33
2018-04-13T08:44:56.717Z,21.90
2018-04-13T08:47:25.077Z,17.83
2018-04-13T08:49:53.419Z,22.27
2018-04-13T08:52:21.029Z,22.33
2018-04-13T08:54:49.441Z,21.03
2018-04-13T08:57:17.094Z,20.50
2018-04-13T08:59:44.684Z,20.50
2018-04-13T09:02:12.325Z,19.70
2018-04-13T09:04:39.955Z,22.73
2018-04-13T09:07:08.284Z,20.20
2018-04-13T09:09:35.881Z,16.53
2018-04-13T09:12:03.476Z,13.80
2018-04-13T09:14:40.033Z,12.40
2018-04-13T09:17:07.616Z,11.63
2018-04-13T09:19:35.264Z,8.33
2018-04-13T09:22:02.939Z,7.80
2018-04-13T09:24:30.527Z,16.03
2018-04-13T09:26:58.086Z,6.80
2018-04-13T09:29:25.685Z,13.60
2018-04-13T09:31:53.385Z,14.70
2018-04-13T09:34:20.964Z,17.90
2018-04-13T09:36:48.553Z,21.93
2018-04-13T09:39:16.135Z,6.23
2018-04-13T09:41:43.800Z,9.73
2018-04-13T09:44:11.373Z,4.30
2018-04-13T09:46:38.965Z,5.20
2018-04-13T09:49:07.289Z,5.40
2018-04-13T09:51:34.875Z,2.93
2018-04-13T09:54:02.445Z,3.47
2018-04-13T09:56:30.925Z,3.67
2018-04-13T09:58:58.500Z,2.53
2018-04-13T10:01:26.838Z,6.03
2018-04-13T10:04:05.078Z,3.03
2018-04-13T10:06:33.430Z,3.70
2018-04-13T10:09:00.992Z,6.10
2018-04-13T10:11:28.552Z,9.33
2018-04-13T10:13:56.134Z,5.47
2018-04-13T10:16:23.762Z,5.10
2018-04-13T10:18:51.365Z,6.83
2018-04-13T10:21:19.753Z,6.73
2018-04-13T10:23:48.149Z,3.97
2018-04-13T10:26:20.576Z,4.40
2018-04-13T10:28:48.244Z,6.97
2018-04-13T10:31:15.960Z,5.03
2018-04-13T10:33:43.533Z,6.47
2018-04-13T10:36:11.117Z,4.93
2018-04-13T10:38:39.597Z,9.60
2018-04-13T10:41:07.270Z,5.83
2018-04-13T10:43:35.608Z,5.03
2018-04-13T10:46:03.190Z,6.07
2018-04-13T10:48:30.753Z,6.47
2018-04-13T10:50:58.415Z,5.43
2018-04-13T10:53:25.973Z,7.47
2018-04-13T10:55:53.576Z,10.60
2018-04-13T10:58:21.134Z,8.23
2018-04-13T11:00:48.740Z,7.77
2018-04-13T11:03:17.195Z,7.50
2018-04-13T11:05:44.768Z,8.43
2018-04-13T11:08:12.366Z,8.47
2018-04-13T11:10:40.721Z,8.37
2018-04-13T11:13:09.089Z,10.23
2018-04-13T11:15:36.714Z,13.20
2018-04-13T11:18:04.453Z,7.70
2018-04-13T11:20:32.017Z,8.27
2018-04-13T11:22:59.597Z,9.73
2018-04-13T11:25:27.168Z,11.93
2018-04-13T11:27:54.760Z,10.10
2018-04-13T11:30:23.106Z,9.27
2018-04-13T11:32:50.661Z,10.40
2018-04-13T11:35:18.247Z,9.63
2018-04-13T11:37:46.045Z,7.40
2018-04-13T11:40:13.777Z,10.13
2018-04-13T11:42:41.408Z,7.17
2018-04-13T11:45:09.001Z,8.30
2018-04-13T11:47:37.333Z,5.83
2018-04-13T11:50:04.918Z,5.47
2018-04-13T11:52:32.489Z,4.63
2018-04-13T11:55:01.658Z,3.50
2018-04-13T11:57:29.233Z,3.30
2018-04-13T11:59:58.323Z,7.57
2018-04-13T12:02:26.046Z,3.13
2018-04-13T12:04:53.564Z,3.30
2018-04-13T12:07:22.093Z,4.90
2018-04-13T12:09:49.673Z,3.13
2018-04-13T12:12:17.408Z,3.20
2018-04-13T12:14:44.965Z,2.73
2018-04-13T12:17:12.543Z,2.67
2018-04-13T12:19:40.100Z,2.83
2018-04-13T12:22:07.711Z,2.63
2018-04-13T12:24:36.024Z,2.80
2018-04-13T12:27:03.608Z,2.90
2018-04-13T12:29:32.676Z,2.93
2018-04-13T12:32:00.263Z,5.70
2018-04-13T12:34:27.817Z,3.53
2018-04-13T12:36:55.444Z,3.87
2018-04-13T12:39:23.002Z,7.47
2018-04-13T12:41:50.561Z,4.50
2018-04-13T12:44:18.279Z,4.13
2018-04-13T12:46:46.009Z,3.53
2018-04-13T12:49:13.597Z,4.97
2018-04-13T12:51:41.166Z,4.20
2018-04-13T12:54:09.564Z,3.77
2018-04-13T12:56:37.166Z,5.40
2018-04-13T12:59:04.745Z,4.60
2018-04-13T13:01:33.838Z,5.00
2018-04-13T13:04:01.421Z,4.67
2018-04-13T13:06:29.765Z,6.97
2018-04-13T13:08:57.387Z,5.30
2018-04-13T13:11:25.109Z,5.13
2018-04-13T13:13:53.424Z,5.90
2018-04-13T13:16:21.035Z,5.67
2018-04-13T13:18:48.589Z,7.43
2018-04-13T13:21:16.176Z,8.03
2018-04-13T13:23:44.586Z,6.37
2018-04-13T13:26:12.197Z,5.80
2018-04-13T13:28:40.533Z,6.80
2018-04-13T13:31:08.086Z,8.40
2018-04-13T13:33:35.674Z,6.60
2018-04-13T13:36:03.513Z,6.80
2018-04-13T13:38:31.075Z,8.23
2018-04-13T13:40:58.725Z,6.67
2018-04-13T13:43:26.429Z,7.87
2018-04-13T13:45:55.512Z,6.00
2018-04-13T13:48:23.104Z,6.10
2018-04-13T13:50:51.583Z,7.07
2018-04-13T13:53:19.950Z,7.20
2018-04-13T13:55:48.282Z,7.67
2018-04-13T13:58:15.985Z,6.63
2018-04-13T14:00:43.793Z,5.77
2018-04-13T14:03:11.356Z,5.77
2018-04-13T14:05:38.961Z,4.13
2018-04-13T14:08:07.418Z,4.43
2018-04-13T14:10:35.033Z,4.33
2018-04-13T14:13:02.642Z,4.03
2018-04-13T14:15:30.207Z,3.33
2018-04-13T14:17:57.981Z,3.80
2018-04-13T14:20:25.561Z,3.60
2018-04-13T14:22:53.909Z,3.30
2018-04-13T14:25:21.528Z,3.10
2018-04-13T14:27:49.097Z,3.07
2018-04-13T14:30:16.745Z,3.20
2018-04-13T14:32:44.288Z,2.50
2018-04-13T14:35:11.913Z,2.80
2018-04-13T14:37:39.731Z,2.00
2018-04-13T14:40:07.321Z,2.33
2018-04-13T14:42:34.885Z,3.30
2018-04-13T14:45:02.590Z,3.33
2018-04-13T14:47:30.201Z,2.03
2018-04-13T14:49:57.769Z,2.57
2018-04-13T14:52:25.366Z,2.47
2018-04-13T14:54:52.980Z,2.30
2018-04-13T14:57:20.573Z,2.37
2018-04-13T14:59:48.901Z,2.20
2018-04-13T15:02:16.926Z,2.53
2018-04-13T15:04:44.521Z,2.47
2018-04-13T15:07:12.241Z,2.60
2018-04-13T15:09:40.781Z,3.33
2018-04-13T15:12:08.647Z,4.53
2018-04-13T15:14:36.790Z,2.10
2018-04-13T15:17:05.580Z,2.47
2018-04-13T15:19:33.630Z,3.73
2018-04-13T15:22:01.757Z,3.07
2018-04-13T15:24:30.240Z,5.00
2018-04-13T15:26:58.269Z,3.50
2018-04-13T15:29:26.158Z,3.43
2018-04-13T15:31:53.902Z,3.60
2018-04-13T15:34:21.523Z,4.30
2018-04-13T15:36:49.274Z,3.60
2018-04-13T15:39:17.892Z,3.73
2018-04-13T15:41:45.481Z,3.87
2018-04-13T15:44:13.041Z,5.87
2018-04-13T15:46:40.789Z,3.90
2018-04-13T15:49:08.354Z,3.50
2018-04-13T15:51:36.060Z,3.97
2018-04-13T15:54:04.408Z,4.20
2018-04-13T15:56:32.121Z,7.60
2018-04-13T15:58:59.685Z,4.23
2018-04-13T16:01:27.305Z,4.07
2018-04-13T16:03:55.034Z,3.87
2018-04-13T16:06:22.601Z,4.00
2018-04-13T16:08:50.193Z,4.43
2018-04-13T16:11:18.646Z,5.13
2018-04-13T16:13:46.310Z,4.93
2018-04-13T16:16:13.890Z,3.80
2018-04-13T16:18:42.241Z,4.00
2018-04-13T16:21:09.903Z,4.20
2018-04-13T16:23:37.493Z,4.23
2018-04-13T16:26:05.909Z,4.53
2018-04-13T16:28:33.522Z,5.47
2018-04-13T16:31:01.858Z,4.50
2018-04-13T16:33:29.524Z,4.60
2018-04-13T16:35:57.225Z,4.10
2018-04-13T16:38:25.591Z,4.13
2018-04-13T16:40:53.170Z,4.57
2018-04-13T16:43:21.497Z,5.00
2018-04-13T16:45:49.073Z,4.40
2018-04-13T16:48:16.721Z,4.40
2018-04-13T16:50:44.319Z,3.97
2018-04-13T16:53:12.658Z,3.97
2018-04-13T16:55:40.270Z,3.47
2018-04-13T16:58:08.610Z,3.50
2018-04-13T17:00:36.184Z,5.10
2018-04-13T17:03:04.533Z,4.20
2018-04-13T17:05:32.118Z,3.10
2018-04-13T17:07:59.705Z,3.47
2018-04-13T17:10:27.281Z,3.40
2018-04-13T17:12:54.875Z,5.77
2018-04-13T17:15:22.481Z,4.00
2018-04-13T17:17:50.086Z,4.27
2018-04-13T17:20:17.658Z,4.50
2018-04-13T17:22:45.264Z,4.50
2018-04-13T17:25:12.827Z,4.90
2018-04-13T17:27:40.410Z,7.23
2018-04-13T17:30:08.113Z,6.30
2018-04-13T17:32:36.454Z,4.37
2018-04-13T17:35:04.061Z,4.30
2018-04-13T17:37:32.597Z,5.63
2018-04-13T17:40:00.274Z,4.10
2018-04-13T17:42:28.628Z,3.87
2018-04-13T17:44:56.300Z,5.23
2018-04-13T17:47:24.021Z,4.47
2018-04-13T17:49:51.753Z,5.30
2018-04-13T17:52:20.120Z,4.00
2018-04-13T17:54:48.649Z,4.27
2018-04-13T17:57:16.209Z,5.83
2018-04-13T17:59:43.770Z,4.90
2018-04-13T18:02:11.380Z,5.10
2018-04-13T18:04:39.037Z,4.90
2018-04-13T18:07:06.642Z,5.50
2018-04-13T18:09:34.330Z,5.73
2018-04-13T18:12:01.981Z,7.30
2018-04-13T18:14:29.626Z,6.47
2018-04-13T18:16:57.188Z,3.87
2018-04-13T18:19:24.800Z,6.27
2018-04-13T18:21:52.430Z,4.13
2018-04-13T18:24:20.014Z,4.30
2018-04-13T18:26:48.478Z,4.13
2018-04-13T18:29:16.050Z,2.90
2018-04-13T18:31:43.780Z,2.73
2018-04-13T18:34:11.356Z,3.20
2018-04-13T18:36:38.961Z,3.60
2018-04-13T18:39:07.301Z,1.77
2018-04-13T18:41:35.058Z,3.20
2018-04-13T18:44:02.661Z,4.83
2018-04-13T18:46:30.993Z,5.07
2018-04-13T18:48:58.615Z,7.40
2018-04-13T18:51:26.258Z,4.43
2018-04-13T18:53:54.593Z,5.33
2018-04-13T18:56:22.187Z,6.90
2018-04-13T18:58:50.557Z,6.17
2018-04-13T19:01:18.874Z,4.10
2018-04-13T19:03:46.482Z,6.27
2018-04-13T19:06:14.063Z,4.77
2018-04-13T19:08:42.543Z,3.93
2018-04-13T19:11:10.913Z,4.40
2018-04-13T19:13:39.353Z,5.90
2018-04-13T19:16:06.930Z,4.50
2018-04-13T19:18:34.763Z,2.60
2018-04-13T19:21:02.325Z,3.70
2018-04-13T19:23:29.918Z,7.90
2018-04-13T19:25:58.249Z,2.80
2018-04-13T19:28:25.833Z,2.30
2018-04-13T19:30:53.401Z,2.33
2018-04-13T19:33:21.791Z,1.97
2018-04-13T19:35:49.388Z,1.87
2018-04-13T19:38:16.997Z,10.93
2018-04-13T19:40:44.557Z,2.10
2018-04-13T19:43:12.142Z,1.67
2018-04-13T19:45:40.527Z,1.77
2018-04-13T19:48:08.919Z,3.63
2018-04-13T19:50:36.601Z,3.40
2018-04-13T19:53:04.177Z,4.33
2018-04-13T19:55:31.965Z,3.63
2018-04-13T19:57:59.638Z,2.70
2018-04-13T20:00:28.042Z,2.73
2018-04-13T20:02:55.626Z,3.43
2018-04-13T20:05:23.261Z,3.97
2018-04-13T20:07:50.824Z,5.07
2018-04-13T20:10:18.440Z,2.60
2018-04-13T20:12:46.834Z,4.27
2018-04-13T20:15:24.938Z,4.10
2018-04-13T20:17:53.255Z,4.90
2018-04-13T20:20:20.834Z,4.70
2018-04-13T20:22:48.519Z,5.10
2018-04-13T20:25:16.169Z,5.77
2018-04-13T20:27:43.768Z,7.23
2018-04-13T20:30:11.330Z,5.27
2018-04-13T20:32:38.954Z,5.80
2018-04-13T20:35:06.541Z,7.57
2018-04-13T20:37:34.112Z,5.93
2018-04-13T20:40:02.534Z,7.40
2018-04-13T20:42:30.126Z,5.43
2018-04-13T20:44:58.461Z,6.50
2018-04-13T20:47:26.181Z,5.80
2018-04-13T20:49:53.907Z,6.73
2018-04-13T20:52:21.513Z,4.90
2018-04-13T20:54:49.094Z,5.40
2018-04-13T20:57:16.685Z,4.90
2018-04-13T20:59:45.110Z,6.87
2018-04-13T21:02:12.703Z,5.97
2018-04-13T21:04:40.501Z,5.20
2018-04-13T21:07:08.150Z,6.17
2018-04-13T21:09:37.014Z,5.70
2018-04-13T21:12:05.756Z,6.13
2018-04-13T21:14:33.419Z,5.33
2018-04-13T21:17:01.361Z,5.30
2018-04-13T21:19:29.158Z,5.97
2018-04-13T21:21:56.747Z,6.83
2018-04-13T21:24:24.309Z,5.53
2018-04-13T21:26:53.554Z,6.80
2018-04-13T21:29:21.111Z,9.87
2018-04-13T21:31:48.866Z,5.80
2018-04-13T21:34:17.213Z,7.07
2018-04-13T21:36:44.813Z,5.70
2018-04-13T21:39:12.416Z,9.53
2018-04-13T21:41:40.193Z,7.00
2018-04-13T21:44:07.787Z,6.53
2018-04-13T21:46:36.181Z,6.70
2018-04-13T21:49:03.777Z,7.33
2018-04-13T21:51:31.357Z,5.60
2018-04-13T21:53:58.995Z,6.50
2018-04-13T21:56:26.597Z,11.40
2018-04-13T21:58:54.968Z,6.53
2018-04-13T22:01:23.305Z,6.37
2018-04-13T22:03:50.914Z,8.10
2018-04-13T22:06:19.260Z,8.43
2018-04-13T22:08:46.857Z,8.60
2018-04-13T22:11:14.589Z,7.70
2018-04-13T22:13:46.431Z,6.80
2018-04-13T22:16:14.006Z,6.57
2018-04-13T22:18:41.621Z,6.80
2018-04-13T22:21:09.421Z,9.00
2018-04-13T22:23:37.241Z,8.50
2018-04-13T22:26:04.890Z,7.70
2018-04-13T22:28:32.828Z,9.77
2018-04-13T22:31:00.422Z,7.83
2018-04-13T22:33:28.178Z,8.67
2018-04-13T22:35:55.829Z,10.27
2018-04-13T22:38:23.722Z,8.60
2018-04-13T22:40:51.320Z,8.23
2018-04-13T22:43:18.901Z,9.93
2018-04-13T22:45:47.242Z,8.63
2018-04-13T22:48:14.929Z,10.33
2018-04-13T22:50:43.257Z,8.93
2018-04-13T22:53:10.851Z,9.80
2018-04-13T22:55:38.430Z,11.90
2018-04-13T22:58:06.777Z,12.23
2018-04-13T23:00:34.460Z,9.83
2018-04-13T23:03:02.106Z,10.53
2018-04-13T23:05:29.717Z,14.63
2018-04-13T23:07:57.281Z,11.33
2018-04-13T23:10:24.956Z,11.87
2018-04-13T23:12:52.535Z,12.23
2018-04-13T23:15:20.129Z,12.37
2018-04-13T23:17:48.462Z,12.00
2018-04-13T23:20:16.070Z,10.87
2018-04-13T23:22:44.400Z,11.43
2018-04-13T23:25:12.140Z,11.63
2018-04-13T23:27:39.708Z,10.63
2018-04-13T23:30:07.313Z,14.30
2018-04-13T23:32:35.645Z,12.30
2018-04-13T23:35:03.244Z,15.20
2018-04-13T23:37:30.846Z,16.30
2018-04-13T23:39:58.413Z,16.30
2018-04-13T23:42:26.020Z,10.73
2018-04-13T23:44:53.583Z,12.20
2018-04-13T23:47:22.161Z,14.53
2018-04-13T23:49:49.725Z,12.97
2018-04-13T23:52:18.100Z,12.17
2018-04-13T23:54:45.669Z,13.00
2018-04-13T23:57:14.065Z,13.47
2018-04-13T23:59:41.634Z,11.20
